Time;durP1;ratioP1;P1;durP2;ratioP2;P2;SDS_P1;SDS_P2;PMS_P1;PMS_P2;Temp;Humidity;BMP_temperature;BMP_pressure;BME280_temperature;BME280_humidity;BME280_pressure;Samples;Min_cycle;Max_cycle;Signal;HPM_P1;HPM_P2
2022/05/17 00:09:08;;;;;;;5.8;11;;;;;;;-133;76.3;65270;;;;
2022/05/17 00:19:08;;;;;;;5.2;8.4;;;;;;;-133;78.6;65270;;;;
2022/05/17 00:30:08;;;;;;;5.2;8.4;;;;;;;-133;77.7;65270;;;;
2022/05/17 00:40:08;;;;;;;5.2;8.4;;;;;;;-133;77.7;65270;;;;
2022/05/17 00:51:08;;;;;;;5.4;11.3;;;;;;;-133;78.2;65270;;;;
2022/05/17 01:02:08;;;;;;;5.4;11.3;;;;;;;-133;77.7;65270;;;;
2022/05/17 01:24:08;;;;;;;4.5;7;;;;;;;-133;77.8;65270;;;;
2022/05/17 01:34:08;;;;;;;4.5;7;;;;;;;-133;79.6;65270;;;;
2022/05/17 01:45:08;;;;;;;5.7;8.4;;;;;;;-133;79;65270;;;;
2022/05/17 01:55:08;;;;;;;5.7;8.4;;;;;;;-133;79.2;65270;;;;
2022/05/17 02:06:08;;;;;;;5.7;8.4;;;;;;;-133;79.3;65270;;;;
2022/05/17 02:16:08;;;;;;;4.9;8.5;;;;;;;-133;80;65270;;;;
2022/05/17 02:27:08;;;;;;;4.9;8.5;;;;;;;-133;79.8;65270;;;;
2022/05/17 02:38:08;;;;;;;4.9;8.5;;;;;;;-133;81;65270;;;;
2022/05/17 02:48:08;;;;;;;4.7;9.5;;;;;;;-133;82.4;65270;;;;
2022/05/17 02:59:08;;;;;;;4.7;9.5;;;;;;;-133;81.7;65270;;;;
2022/05/17 03:09:08;;;;;;;4.7;9.5;;;;;;;-133;81.8;65270;;;;
2022/05/17 03:20:08;;;;;;;5.7;8.4;;;;;;;-133;83.6;65270;;;;
2022/05/17 03:31:08;;;;;;;5.7;8.4;;;;;;;-133;83;65270;;;;
2022/05/17 03:41:08;;;;;;;5.7;8.4;;;;;;;-133;82.3;65270;;;;
2022/05/17 03:52:08;;;;;;;5.5;10.3;;;;;;;-133;81.1;65270;;;;
2022/05/17 04:03:08;;;;;;;5.5;10.3;;;;;;;-133;81.1;65270;;;;
2022/05/17 04:13:08;;;;;;;6.2;9.2;;;;;;;-133;80.7;65270;;;;
2022/05/17 04:24:08;;;;;;;6.2;9.2;;;;;;;-133;79;65270;;;;
2022/05/17 04:34:08;;;;;;;6.2;9.2;;;;;;;-133;76.8;65260;;;;
2022/05/17 04:44:08;;;;;;;5.4;8.5;;;;;;;-133;77.4;65270;;;;
2022/05/17 04:54:08;;;;;;;5.4;8.5;;;;;;;-133;76.9;65260;;;;
2022/05/17 05:05:08;;;;;;;5.4;8.5;;;;;;;-133;74.4;65260;;;;
2022/05/17 05:15:08;;;;;;;6.5;13.8;;;;;;;-133;74.3;65260;;;;
2022/05/17 05:26:08;;;;;;;6.5;13.8;;;;;;;-133;73.5;65260;;;;
2022/05/17 05:36:08;;;;;;;6.5;13.8;;;;;;;-133;73.1;65260;;;;
2022/05/17 05:47:08;;;;;;;6.5;10.9;;;;;;;-133;71.5;65250;;;;
2022/05/17 05:58:08;;;;;;;6.5;10.9;;;;;;;-133;70.6;65250;;;;
2022/05/17 06:09:08;;;;;;;6.5;10.9;;;;;;;-133;67.4;65250;;;;
2022/05/17 06:20:08;;;;;;;5.7;8.4;;;;;;;-133;67.1;65250;;;;
2022/05/17 06:31:08;;;;;;;5.7;8.4;;;;;;;-133;66;65250;;;;
2022/05/17 06:41:08;;;;;;;5.7;8.4;;;;;;;-133;64.5;65250;;;;
2022/05/17 06:52:08;;;;;;;5.1;9.1;;;;;;;-133;65.2;65250;;;;
2022/05/17 07:02:08;;;;;;;5.1;9.1;;;;;;;-133;64.2;65240;;;;
2022/05/17 07:13:08;;;;;;;5.6;10.4;;;;;;;-133;62.9;65240;;;;
2022/05/17 07:24:08;;;;;;;5.6;10.4;;;;;;;-133;62.8;65240;;;;
2022/05/17 07:34:08;;;;;;;5.6;10.4;;;;;;;-133;61.9;65240;;;;
2022/05/17 07:45:08;;;;;;;4.9;10.2;;;;;;;-133;60.7;65240;;;;
2022/05/17 07:55:08;;;;;;;4.9;10.2;;;;;;;-133;60.7;65240;;;;
2022/05/17 08:05:09;;;;;;;4.9;10.2;;;;;;;-133;60.3;65240;;;;
2022/05/17 08:16:08;;;;;;;5.6;10.5;;;;;;;-133;58.4;65240;;;;
2022/05/17 08:37:08;;;;;;;5.6;10.5;;;;;;;-133;55;65230;;;;
2022/05/17 08:47:11;;;;;;;4.4;9.3;;;;;;;-133;57.3;65230;;;;
2022/05/17 08:58:08;;;;;;;4.4;9.3;;;;;;;-133;55.6;65230;;;;
2022/05/17 09:08:09;;;;;;;4.4;9.3;;;;;;;-133;55;65240;;;;
2022/05/17 09:18:10;;;;;;;3.7;6.9;;;;;;;-133;56;65240;;;;
2022/05/17 09:28:08;;;;;;;3.7;6.9;;;;;;;-133;52.7;65230;;;;
2022/05/17 09:39:08;;;;;;;3.7;6.9;;;;;;;-133;50.6;65230;;;;
2022/05/17 10:00:12;;;;;;;3.2;6.2;;;;;;;-133;49.7;65230;;;;
2022/05/17 10:11:08;;;;;;;3.2;6.2;;;;;;;-133;46.7;65240;;;;
2022/05/17 10:21:08;;;;;;;2.5;6.4;;;;;;;-133;46;65230;;;;
2022/05/17 10:32:08;;;;;;;2.5;6.4;;;;;;;-133;45.3;65230;;;;
2022/05/17 10:42:08;;;;;;;2.5;6.4;;;;;;;-133;44.5;65230;;;;
2022/05/17 10:53:08;;;;;;;2.6;7.1;;;;;;;-133;45.5;65230;;;;
2022/05/17 11:04:08;;;;;;;2.6;7.1;;;;;;;-133;44.5;65230;;;;
2022/05/17 11:14:08;;;;;;;2.2;5.4;;;;;;;-133;44.3;65230;;;;
2022/05/17 11:25:08;;;;;;;2.2;5.4;;;;;;;-133;44.6;65230;;;;
2022/05/17 11:36:09;;;;;;;2.2;5.4;;;;;;;-133;42.6;65230;;;;
2022/05/17 11:47:08;;;;;;;2;5;;;;;;;-133;46.6;65230;;;;
2022/05/17 11:58:08;;;;;;;2;5;;;;;;;-133;42.7;65230;;;;
2022/05/17 12:09:08;;;;;;;2;5;;;;;;;-133;41;65230;;;;
2022/05/17 12:19:08;;;;;;;2.4;6.3;;;;;;;-133;37.1;65230;;;;
2022/05/17 12:30:52;;;;;;;2.4;6.3;;;;;;;-133;37.2;65230;;;;
2022/05/17 12:51:08;;;;;;;1.6;7.3;;;;;;;-133;40.8;65240;;;;
2022/05/17 13:01:08;;;;;;;1.6;7.3;;;;;;;-133;41.6;65240;;;;
2022/05/17 13:12:08;;;;;;;1.6;7.3;;;;;;;-133;43.1;65240;;;;
2022/05/17 13:22:08;;;;;;;1.7;4.2;;;;;;;-133;43.8;65240;;;;
2022/05/17 13:33:08;;;;;;;1.7;4.2;;;;;;;-133;44.4;65240;;;;
2022/05/17 13:44:08;;;;;;;1.2;3.7;;;;;;;-133;43.8;65240;;;;
2022/05/17 13:54:08;;;;;;;1.2;3.7;;;;;;;-133;44.8;65240;;;;
2022/05/17 14:05:08;;;;;;;1.2;3.7;;;;;;;-133;44.7;65240;;;;
2022/05/17 14:16:08;;;;;;;1.3;5.8;;;;;;;-133;44;65240;;;;
2022/05/17 14:26:08;;;;;;;1.3;5.8;;;;;;;-133;43.7;65240;;;;
2022/05/17 14:37:08;;;;;;;1.3;5.8;;;;;;;-133;43.3;65240;;;;
2022/05/17 14:47:08;;;;;;;1.5;3.6;;;;;;;-133;42.1;65240;;;;
2022/05/17 14:58:08;;;;;;;1.5;3.6;;;;;;;-133;42.9;65240;;;;
2022/05/17 15:08:09;;;;;;;1.5;3.6;;;;;;;-133;43;65240;;;;
2022/05/17 15:18:08;;;;;;;2.1;6.8;;;;;;;-133;42.9;65240;;;;
2022/05/17 15:29:08;;;;;;;2.1;6.8;;;;;;;-133;43.8;65240;;;;
2022/05/17 15:40:08;;;;;;;2.1;6.8;;;;;;;-133;44.7;65240;;;;
2022/05/17 16:00:08;;;;;;;2.5;8.6;;;;;;;-133;44.5;65240;;;;
2022/05/17 16:12:13;;;;;;;2.5;8.6;;;;;;;-133;44.9;65240;;;;
2022/05/17 16:22:09;;;;;;;5.3;13.8;;;;;;;-133;45.3;65240;;;;
2022/05/17 16:33:08;;;;;;;5.3;13.8;;;;;;;-133;45;65240;;;;
2022/05/17 16:43:08;;;;;;;5.4;9.8;;;;;;;-133;45.7;65240;;;;
2022/05/17 16:53:08;;;;;;;5.4;9.8;;;;;;;-133;45.9;65240;;;;
2022/05/17 17:04:08;;;;;;;5.4;9.8;;;;;;;-133;46.2;65250;;;;
2022/05/17 17:15:09;;;;;;;3;6.6;;;;;;;-133;46.7;65240;;;;
2022/05/17 17:25:08;;;;;;;3;6.6;;;;;;;-133;48;65240;;;;
2022/05/17 17:46:10;;;;;;;3.2;8.1;;;;;;;-133;49.7;65250;;;;
2022/05/17 17:56:08;;;;;;;3.2;8.1;;;;;;;-133;51;65250;;;;
2022/05/17 18:07:08;;;;;;;3.2;8.1;;;;;;;-133;52.3;65250;;;;
2022/05/17 18:17:08;;;;;;;2.6;9.3;;;;;;;-133;55.5;65250;;;;
2022/05/17 18:28:08;;;;;;;2.6;9.3;;;;;;;-133;57.4;65250;;;;
2022/05/17 18:39:08;;;;;;;2.6;9.3;;;;;;;-133;60.2;65250;;;;
2022/05/17 18:50:08;;;;;;;4.8;11.1;;;;;;;-133;60.4;65250;;;;
2022/05/17 19:00:11;;;;;;;4.8;11.1;;;;;;;-133;63.1;65250;;;;
2022/05/17 19:20:08;;;;;;;5.9;10.7;;;;;;;-133;65;65250;;;;
2022/05/17 19:31:08;;;;;;;5.9;10.7;;;;;;;-133;64.5;65250;;;;
2022/05/17 19:41:08;;;;;;;5.9;10.7;;;;;;;-133;64.4;65250;;;;
2022/05/17 19:51:11;;;;;;;3.8;7.6;;;;;;;-133;65;65250;;;;
2022/05/17 20:01:09;;;;;;;3.8;7.6;;;;;;;-133;65.8;65250;;;;
2022/05/17 20:11:09;;;;;;;3.8;7.6;;;;;;;-133;66.3;65250;;;;
2022/05/17 20:21:08;;;;;;;3.5;8.5;;;;;;;-133;66.5;65250;;;;
2022/05/17 20:31:08;;;;;;;3.5;8.5;;;;;;;-133;64.9;65260;;;;
2022/05/17 20:42:08;;;;;;;3.5;8.5;;;;;;;-133;62.7;65250;;;;
2022/05/17 20:53:08;;;;;;;3.2;6.8;;;;;;;-133;62.3;65260;;;;
2022/05/17 21:04:08;;;;;;;3.2;6.8;;;;;;;-133;61.4;65250;;;;
2022/05/17 21:14:09;;;;;;;2.5;5.4;;;;;;;-133;61.4;65260;;;;
2022/05/17 21:24:09;;;;;;;2.5;5.4;;;;;;;-133;61.6;65260;;;;
2022/05/17 21:35:08;;;;;;;2.5;5.4;;;;;;;-133;60.7;65260;;;;
2022/05/17 21:46:08;;;;;;;2.4;7.7;;;;;;;-133;59.6;65260;;;;
2022/05/17 21:56:08;;;;;;;2.4;7.7;;;;;;;-133;60.4;65260;;;;
2022/05/17 22:07:08;;;;;;;2.4;7.7;;;;;;;-133;61.9;65260;;;;
2022/05/17 22:17:09;;;;;;;1.8;4.5;;;;;;;-133;62.8;65250;;;;
2022/05/17 22:27:08;;;;;;;1.8;4.5;;;;;;;-133;61.9;65260;;;;
2022/05/17 22:38:08;;;;;;;1.8;4.5;;;;;;;-133;62.1;65260;;;;
2022/05/17 22:49:08;;;;;;;2.1;5.6;;;;;;;-133;61.9;65260;;;;
2022/05/17 23:00:08;;;;;;;2.1;5.6;;;;;;;-133;62.6;65260;;;;
2022/05/17 23:10:08;;;;;;;2.1;5.6;;;;;;;-133;62.8;65260;;;;
2022/05/17 23:20:08;;;;;;;2.3;9.1;;;;;;;-133;61.2;65260;;;;
2022/05/17 23:30:09;;;;;;;2.3;9.1;;;;;;;-133;61;65260;;;;
2022/05/17 23:40:08;;;;;;;2.3;9.1;;;;;;;-133;61.5;65260;;;;
2022/05/17 23:51:08;;;;;;;2;4.9;;;;;;;-133;62.5;65260;;;;
